sensor_id;sensor_type;location;lat;lon;timestamp;temperature;humidity
18932;DHT22;9598;50.954;3.112;2023-03-24T00:01:46;13.70;99.90
18932;DHT22;9598;50.954;3.112;2023-03-24T00:06:50;13.70;99.90
18932;DHT22;9598;50.954;3.112;2023-03-24T00:11:53;13.70;99.90
18932;DHT22;9598;50.954;3.112;2023-03-24T00:16:56;13.70;99.90
18932;DHT22;9598;50.954;3.112;2023-03-24T00:22:01;13.70;99.90
18932;DHT22;9598;50.954;3.112;2023-03-24T00:27:03;13.80;99.90
18932;DHT22;9598;50.954;3.112;2023-03-24T00:32:06;13.80;99.90
18932;DHT22;9598;50.954;3.112;2023-03-24T00:37:10;13.70;99.90
18932;DHT22;9598;50.954;3.112;2023-03-24T00:42:13;13.70;99.90
18932;DHT22;9598;50.954;3.112;2023-03-24T00:47:15;13.60;99.90
18932;DHT22;9598;50.954;3.112;2023-03-24T00:52:27;13.40;99.90
18932;DHT22;9598;50.954;3.112;2023-03-24T00:57:34;13.20;99.90
18932;DHT22;9598;50.954;3.112;2023-03-24T01:02:36;13.10;99.90
18932;DHT22;9598;50.954;3.112;2023-03-24T01:07:40;12.90;99.90
18932;DHT22;9598;50.954;3.112;2023-03-24T01:12:43;12.70;99.90
18932;DHT22;9598;50.954;3.112;2023-03-24T01:17:45;12.60;99.90
18932;DHT22;9598;50.954;3.112;2023-03-24T01:22:50;12.50;99.90
18932;DHT22;9598;50.954;3.112;2023-03-24T01:27:52;12.40;99.90
18932;DHT22;9598;50.954;3.112;2023-03-24T01:32:56;12.40;99.90
18932;DHT22;9598;50.954;3.112;2023-03-24T01:38:00;12.30;99.90
18932;DHT22;9598;50.954;3.112;2023-03-24T01:43:02;12.20;99.90
18932;DHT22;9598;50.954;3.112;2023-03-24T01:48:06;12.20;99.90
18932;DHT22;9598;50.954;3.112;2023-03-24T01:53:10;12.10;99.90
18932;DHT22;9598;50.954;3.112;2023-03-24T01:58:14;12.00;99.90
18932;DHT22;9598;50.954;3.112;2023-03-24T02:03:29;12.00;99.90
18932;DHT22;9598;50.954;3.112;2023-03-24T02:08:39;12.00;99.90
18932;DHT22;9598;50.954;3.112;2023-03-24T02:13:42;11.90;99.90
18932;DHT22;9598;50.954;3.112;2023-03-24T02:18:52;11.90;99.90
18932;DHT22;9598;50.954;3.112;2023-03-24T02:30:19;11.80;99.90
18932;DHT22;9598;50.954;3.112;2023-03-24T02:41:15;11.80;99.90
18932;DHT22;9598;50.954;3.112;2023-03-24T02:46:23;11.80;99.90
18932;DHT22;9598;50.954;3.112;2023-03-24T02:51:33;11.80;99.90
18932;DHT22;9598;50.954;3.112;2023-03-24T02:56:39;11.70;99.90
18932;DHT22;9598;50.954;3.112;2023-03-24T03:02:02;11.80;99.90
18932;DHT22;9598;50.954;3.112;2023-03-24T03:07:14;11.70;99.90
18932;DHT22;9598;50.954;3.112;2023-03-24T03:12:25;11.70;99.90
18932;DHT22;9598;50.954;3.112;2023-03-24T03:17:31;11.70;99.90
18932;DHT22;9598;50.954;3.112;2023-03-24T03:22:40;11.70;99.90
18932;DHT22;9598;50.954;3.112;2023-03-24T03:27:46;11.70;99.90
18932;DHT22;9598;50.954;3.112;2023-03-24T03:32:54;11.70;99.90
18932;DHT22;9598;50.954;3.112;2023-03-24T03:38:05;11.70;99.90
18932;DHT22;9598;50.954;3.112;2023-03-24T03:43:10;11.60;99.90
18932;DHT22;9598;50.954;3.112;2023-03-24T03:48:14;11.60;99.90
18932;DHT22;9598;50.954;3.112;2023-03-24T03:53:19;11.60;99.90
18932;DHT22;9598;50.954;3.112;2023-03-24T03:58:25;11.60;99.90
18932;DHT22;9598;50.954;3.112;2023-03-24T04:03:47;11.60;99.90
18932;DHT22;9598;50.954;3.112;2023-03-24T04:08:57;11.60;99.90
18932;DHT22;9598;50.954;3.112;2023-03-24T04:14:20;11.60;99.90
18932;DHT22;9598;50.954;3.112;2023-03-24T04:19:55;11.60;99.90
18932;DHT22;9598;50.954;3.112;2023-03-24T04:25:12;11.60;99.90
18932;DHT22;9598;50.954;3.112;2023-03-24T04:30:23;11.60;99.90
18932;DHT22;9598;50.954;3.112;2023-03-24T04:35:32;11.60;99.90
18932;DHT22;9598;50.954;3.112;2023-03-24T04:40:51;11.60;99.90
18932;DHT22;9598;50.954;3.112;2023-03-24T04:45:57;11.60;99.90
18932;DHT22;9598;50.954;3.112;2023-03-24T04:51:12;11.60;99.90
18932;DHT22;9598;50.954;3.112;2023-03-24T04:56:40;11.50;99.90
18932;DHT22;9598;50.954;3.112;2023-03-24T05:02:07;11.60;99.90
18932;DHT22;9598;50.954;3.112;2023-03-24T05:07:28;11.60;99.90
18932;DHT22;9598;50.954;3.112;2023-03-24T05:12:34;11.60;99.90
18932;DHT22;9598;50.954;3.112;2023-03-24T05:18:01;11.60;99.90
18932;DHT22;9598;50.954;3.112;2023-03-24T05:23:03;11.60;99.90
18932;DHT22;9598;50.954;3.112;2023-03-24T05:28:06;11.60;99.90
18932;DHT22;9598;50.954;3.112;2023-03-24T05:33:10;11.60;99.90
18932;DHT22;9598;50.954;3.112;2023-03-24T05:38:13;11.60;99.90
18932;DHT22;9598;50.954;3.112;2023-03-24T05:43:19;11.60;99.90
18932;DHT22;9598;50.954;3.112;2023-03-24T05:48:33;11.70;99.90
18932;DHT22;9598;50.954;3.112;2023-03-24T05:53:45;11.60;99.90
18932;DHT22;9598;50.954;3.112;2023-03-24T05:58:52;11.60;99.90
18932;DHT22;9598;50.954;3.112;2023-03-24T06:03:58;11.60;99.90
18932;DHT22;9598;50.954;3.112;2023-03-24T06:09:00;11.60;99.90
18932;DHT22;9598;50.954;3.112;2023-03-24T06:14:05;11.60;99.90
18932;DHT22;9598;50.954;3.112;2023-03-24T06:19:19;11.60;99.90
18932;DHT22;9598;50.954;3.112;2023-03-24T06:24:57;11.60;99.90
18932;DHT22;9598;50.954;3.112;2023-03-24T06:30:00;11.60;99.90
18932;DHT22;9598;50.954;3.112;2023-03-24T06:35:04;11.60;99.90
18932;DHT22;9598;50.954;3.112;2023-03-24T06:40:19;11.60;99.90
18932;DHT22;9598;50.954;3.112;2023-03-24T06:45:28;11.50;99.90
18932;DHT22;9598;50.954;3.112;2023-03-24T06:50:32;11.60;99.90
18932;DHT22;9598;50.954;3.112;2023-03-24T06:55:41;11.60;99.90
18932;DHT22;9598;50.954;3.112;2023-03-24T07:00:45;11.60;99.90
18932;DHT22;9598;50.954;3.112;2023-03-24T07:06:09;11.70;99.90
18932;DHT22;9598;50.954;3.112;2023-03-24T07:11:12;11.60;99.90
18932;DHT22;9598;50.954;3.112;2023-03-24T07:16:22;11.70;99.90
18932;DHT22;9598;50.954;3.112;2023-03-24T07:21:35;11.70;99.90
18932;DHT22;9598;50.954;3.112;2023-03-24T07:26:37;11.70;99.90
18932;DHT22;9598;50.954;3.112;2023-03-24T07:31:51;11.80;99.90
18932;DHT22;9598;50.954;3.112;2023-03-24T07:36:56;11.80;99.90
18932;DHT22;9598;50.954;3.112;2023-03-24T07:41:58;11.80;99.90
18932;DHT22;9598;50.954;3.112;2023-03-24T07:47:13;11.90;99.90
18932;DHT22;9598;50.954;3.112;2023-03-24T07:52:17;11.90;99.90
18932;DHT22;9598;50.954;3.112;2023-03-24T07:57:24;12.00;99.90
18932;DHT22;9598;50.954;3.112;2023-03-24T08:02:26;12.10;99.90
18932;DHT22;9598;50.954;3.112;2023-03-24T08:07:50;12.20;99.90
18932;DHT22;9598;50.954;3.112;2023-03-24T08:12:55;12.10;99.90
18932;DHT22;9598;50.954;3.112;2023-03-24T08:17:57;12.20;99.90
18932;DHT22;9598;50.954;3.112;2023-03-24T08:23:01;12.30;99.90
18932;DHT22;9598;50.954;3.112;2023-03-24T08:28:04;12.30;99.90
18932;DHT22;9598;50.954;3.112;2023-03-24T08:33:07;12.30;99.90
18932;DHT22;9598;50.954;3.112;2023-03-24T08:38:12;12.40;99.90
18932;DHT22;9598;50.954;3.112;2023-03-24T08:43:16;12.30;99.90
18932;DHT22;9598;50.954;3.112;2023-03-24T08:48:19;12.40;99.90
18932;DHT22;9598;50.954;3.112;2023-03-24T08:53:24;12.60;99.90
18932;DHT22;9598;50.954;3.112;2023-03-24T08:58:26;12.60;99.90
18932;DHT22;9598;50.954;3.112;2023-03-24T09:08:54;12.70;99.90
18932;DHT22;9598;50.954;3.112;2023-03-24T09:14:02;12.70;99.90
18932;DHT22;9598;50.954;3.112;2023-03-24T09:19:04;12.50;99.90
18932;DHT22;9598;50.954;3.112;2023-03-24T09:24:08;12.40;99.90
18932;DHT22;9598;50.954;3.112;2023-03-24T09:29:10;12.40;99.90
18932;DHT22;9598;50.954;3.112;2023-03-24T10:29:19;13.60;99.90
18932;DHT22;9598;50.954;3.112;2023-03-24T10:34:26;13.70;99.90
18932;DHT22;9598;50.954;3.112;2023-03-24T10:39:31;13.80;99.90
18932;DHT22;9598;50.954;3.112;2023-03-24T10:44:34;13.70;99.90
18932;DHT22;9598;50.954;3.112;2023-03-24T10:49:37;13.60;99.90
18932;DHT22;9598;50.954;3.112;2023-03-24T10:54:52;13.40;99.90
18932;DHT22;9598;50.954;3.112;2023-03-24T10:59:59;13.00;99.90
18932;DHT22;9598;50.954;3.112;2023-03-24T11:05:12;12.70;99.90
18932;DHT22;9598;50.954;3.112;2023-03-24T11:10:17;12.60;99.90
18932;DHT22;9598;50.954;3.112;2023-03-24T11:15:23;12.60;99.90
18932;DHT22;9598;50.954;3.112;2023-03-24T11:20:30;12.80;99.90
18932;DHT22;9598;50.954;3.112;2023-03-24T11:25:35;13.10;99.90
18932;DHT22;9598;50.954;3.112;2023-03-24T11:30:46;13.20;99.90
18932;DHT22;9598;50.954;3.112;2023-03-24T11:35:49;13.20;99.90
18932;DHT22;9598;50.954;3.112;2023-03-24T11:40:53;13.20;99.90
18932;DHT22;9598;50.954;3.112;2023-03-24T11:46:01;13.10;99.90
18932;DHT22;9598;50.954;3.112;2023-03-24T11:51:08;12.90;99.90
18932;DHT22;9598;50.954;3.112;2023-03-24T11:56:16;12.80;99.90
18932;DHT22;9598;50.954;3.112;2023-03-24T12:01:27;12.90;99.90
18932;DHT22;9598;50.954;3.112;2023-03-24T12:06:52;12.90;99.90
18932;DHT22;9598;50.954;3.112;2023-03-24T12:12:18;12.90;99.90
18932;DHT22;9598;50.954;3.112;2023-03-24T12:17:26;13.00;99.90
18932;DHT22;9598;50.954;3.112;2023-03-24T12:22:43;13.20;99.90
18932;DHT22;9598;50.954;3.112;2023-03-24T12:27:52;13.40;99.90
18932;DHT22;9598;50.954;3.112;2023-03-24T12:33:13;13.40;99.90
18932;DHT22;9598;50.954;3.112;2023-03-24T12:38:27;13.50;99.90
18932;DHT22;9598;50.954;3.112;2023-03-24T12:43:38;13.50;99.90
18932;DHT22;9598;50.954;3.112;2023-03-24T12:48:55;13.40;99.90
18932;DHT22;9598;50.954;3.112;2023-03-24T12:54:16;13.50;99.90
18932;DHT22;9598;50.954;3.112;2023-03-24T12:59:22;13.50;99.90
18932;DHT22;9598;50.954;3.112;2023-03-24T13:04:31;13.50;99.90
18932;DHT22;9598;50.954;3.112;2023-03-24T13:09:39;13.60;99.90
18932;DHT22;9598;50.954;3.112;2023-03-24T13:14:50;13.60;99.90
18932;DHT22;9598;50.954;3.112;2023-03-24T13:19:57;13.60;99.90
18932;DHT22;9598;50.954;3.112;2023-03-24T13:25:01;13.80;99.90
18932;DHT22;9598;50.954;3.112;2023-03-24T13:30:22;14.00;99.90
18932;DHT22;9598;50.954;3.112;2023-03-24T13:35:54;14.20;99.90
18932;DHT22;9598;50.954;3.112;2023-03-24T13:41:02;14.30;99.90
18932;DHT22;9598;50.954;3.112;2023-03-24T13:46:06;14.40;99.90
18932;DHT22;9598;50.954;3.112;2023-03-24T13:51:17;14.50;99.90
18932;DHT22;9598;50.954;3.112;2023-03-24T13:56:24;14.50;99.90
18932;DHT22;9598;50.954;3.112;2023-03-24T14:01:32;14.50;99.90
18932;DHT22;9598;50.954;3.112;2023-03-24T14:06:48;14.40;99.90
18932;DHT22;9598;50.954;3.112;2023-03-24T14:12:06;14.40;99.90
18932;DHT22;9598;50.954;3.112;2023-03-24T14:17:14;14.50;99.90
18932;DHT22;9598;50.954;3.112;2023-03-24T14:22:21;14.60;99.90
18932;DHT22;9598;50.954;3.112;2023-03-24T14:27:34;14.60;99.90
18932;DHT22;9598;50.954;3.112;2023-03-24T14:32:39;14.60;99.90
18932;DHT22;9598;50.954;3.112;2023-03-24T14:37:50;14.60;99.90
18932;DHT22;9598;50.954;3.112;2023-03-24T14:48:41;14.70;99.90
18932;DHT22;9598;50.954;3.112;2023-03-24T14:53:46;14.70;99.90
18932;DHT22;9598;50.954;3.112;2023-03-24T14:58:51;14.70;99.90
18932;DHT22;9598;50.954;3.112;2023-03-24T15:04:00;14.70;99.90
18932;DHT22;9598;50.954;3.112;2023-03-24T15:09:09;14.70;99.90
18932;DHT22;9598;50.954;3.112;2023-03-24T15:14:18;14.70;99.90
18932;DHT22;9598;50.954;3.112;2023-03-24T15:19:26;14.60;99.90
18932;DHT22;9598;50.954;3.112;2023-03-24T15:24:33;14.50;99.90
18932;DHT22;9598;50.954;3.112;2023-03-24T15:29:36;14.60;99.90
18932;DHT22;9598;50.954;3.112;2023-03-24T15:34:40;14.60;99.90
18932;DHT22;9598;50.954;3.112;2023-03-24T15:39:48;14.60;99.90
18932;DHT22;9598;50.954;3.112;2023-03-24T15:44:52;14.70;99.90
18932;DHT22;9598;50.954;3.112;2023-03-24T15:49:55;14.70;99.90
18932;DHT22;9598;50.954;3.112;2023-03-24T15:55:01;14.60;99.90
18932;DHT22;9598;50.954;3.112;2023-03-24T16:00:12;14.60;99.90
18932;DHT22;9598;50.954;3.112;2023-03-24T16:05:19;14.60;99.90
18932;DHT22;9598;50.954;3.112;2023-03-24T16:10:32;14.60;99.90
18932;DHT22;9598;50.954;3.112;2023-03-24T16:15:40;14.60;99.90
18932;DHT22;9598;50.954;3.112;2023-03-24T16:20:42;14.40;99.90
18932;DHT22;9598;50.954;3.112;2023-03-24T16:25:45;14.40;99.90
18932;DHT22;9598;50.954;3.112;2023-03-24T16:30:51;14.40;99.90
18932;DHT22;9598;50.954;3.112;2023-03-24T16:35:56;14.40;99.90
18932;DHT22;9598;50.954;3.112;2023-03-24T16:41:00;14.30;99.90
18932;DHT22;9598;50.954;3.112;2023-03-24T16:46:03;14.20;99.90
18932;DHT22;9598;50.954;3.112;2023-03-24T16:51:08;14.10;99.90
18932;DHT22;9598;50.954;3.112;2023-03-24T16:56:14;14.00;99.90
18932;DHT22;9598;50.954;3.112;2023-03-24T17:01:19;13.80;99.90
18932;DHT22;9598;50.954;3.112;2023-03-24T17:06:28;13.80;99.90
18932;DHT22;9598;50.954;3.112;2023-03-24T17:11:34;13.70;99.90
18932;DHT22;9598;50.954;3.112;2023-03-24T17:16:39;13.60;99.90
18932;DHT22;9598;50.954;3.112;2023-03-24T17:21:46;13.60;99.90
18932;DHT22;9598;50.954;3.112;2023-03-24T17:26:51;13.60;99.90
18932;DHT22;9598;50.954;3.112;2023-03-24T17:31:53;13.50;99.90
18932;DHT22;9598;50.954;3.112;2023-03-24T17:36:55;13.50;99.90
18932;DHT22;9598;50.954;3.112;2023-03-24T17:41:59;13.40;99.90
18932;DHT22;9598;50.954;3.112;2023-03-24T17:47:01;13.30;99.90
18932;DHT22;9598;50.954;3.112;2023-03-24T17:52:03;13.20;99.90
18932;DHT22;9598;50.954;3.112;2023-03-24T17:57:07;13.20;99.90
18932;DHT22;9598;50.954;3.112;2023-03-24T18:02:11;13.10;99.90
18932;DHT22;9598;50.954;3.112;2023-03-24T18:07:14;13.10;99.90
18932;DHT22;9598;50.954;3.112;2023-03-24T18:12:17;13.00;99.90
18932;DHT22;9598;50.954;3.112;2023-03-24T18:17:20;13.10;99.90
18932;DHT22;9598;50.954;3.112;2023-03-24T18:22:22;13.00;99.90
18932;DHT22;9598;50.954;3.112;2023-03-24T18:27:25;12.90;99.90
18932;DHT22;9598;50.954;3.112;2023-03-24T18:32:28;12.90;99.90
18932;DHT22;9598;50.954;3.112;2023-03-24T18:37:32;12.80;99.90
18932;DHT22;9598;50.954;3.112;2023-03-24T18:42:36;12.70;99.90
18932;DHT22;9598;50.954;3.112;2023-03-24T18:47:38;12.70;99.90
18932;DHT22;9598;50.954;3.112;2023-03-24T18:52:41;12.70;99.90
18932;DHT22;9598;50.954;3.112;2023-03-24T18:57:44;12.60;99.90
18932;DHT22;9598;50.954;3.112;2023-03-24T19:02:46;12.60;99.90
18932;DHT22;9598;50.954;3.112;2023-03-24T19:07:48;12.60;99.90
18932;DHT22;9598;50.954;3.112;2023-03-24T19:12:53;12.50;99.90
18932;DHT22;9598;50.954;3.112;2023-03-24T19:17:56;12.50;99.90
18932;DHT22;9598;50.954;3.112;2023-03-24T19:22:58;12.40;99.90
18932;DHT22;9598;50.954;3.112;2023-03-24T19:28:01;12.40;99.90
18932;DHT22;9598;50.954;3.112;2023-03-24T19:33:04;12.30;99.90
18932;DHT22;9598;50.954;3.112;2023-03-24T19:38:06;12.20;99.90
18932;DHT22;9598;50.954;3.112;2023-03-24T19:43:10;12.10;99.90
18932;DHT22;9598;50.954;3.112;2023-03-24T19:48:12;12.10;99.90
18932;DHT22;9598;50.954;3.112;2023-03-24T19:53:14;12.00;99.90
18932;DHT22;9598;50.954;3.112;2023-03-24T19:58:18;11.90;99.90
18932;DHT22;9598;50.954;3.112;2023-03-24T20:03:20;11.80;99.90
18932;DHT22;9598;50.954;3.112;2023-03-24T20:08:22;11.70;99.90
18932;DHT22;9598;50.954;3.112;2023-03-24T20:13:27;11.70;99.90
18932;DHT22;9598;50.954;3.112;2023-03-24T20:18:29;11.60;99.90
18932;DHT22;9598;50.954;3.112;2023-03-24T20:23:31;11.50;99.90
18932;DHT22;9598;50.954;3.112;2023-03-24T20:28:35;11.50;99.90
18932;DHT22;9598;50.954;3.112;2023-03-24T20:33:37;11.60;99.90
18932;DHT22;9598;50.954;3.112;2023-03-24T20:38:39;11.50;99.90
18932;DHT22;9598;50.954;3.112;2023-03-24T20:43:43;11.40;99.90
18932;DHT22;9598;50.954;3.112;2023-03-24T20:48:45;11.50;99.90
18932;DHT22;9598;50.954;3.112;2023-03-24T20:53:48;11.40;99.90
18932;DHT22;9598;50.954;3.112;2023-03-24T20:58:51;11.40;99.90
18932;DHT22;9598;50.954;3.112;2023-03-24T21:03:53;11.40;99.90
18932;DHT22;9598;50.954;3.112;2023-03-24T21:08:56;11.40;99.90
18932;DHT22;9598;50.954;3.112;2023-03-24T21:14:00;11.40;99.90
18932;DHT22;9598;50.954;3.112;2023-03-24T21:19:03;11.30;99.90
18932;DHT22;9598;50.954;3.112;2023-03-24T21:24:05;11.30;99.90
18932;DHT22;9598;50.954;3.112;2023-03-24T21:29:09;11.30;99.90
18932;DHT22;9598;50.954;3.112;2023-03-24T21:34:12;11.30;99.90
18932;DHT22;9598;50.954;3.112;2023-03-24T21:39:14;11.20;99.90
18932;DHT22;9598;50.954;3.112;2023-03-24T21:44:18;11.10;99.90
18932;DHT22;9598;50.954;3.112;2023-03-24T21:49:20;11.10;99.90
18932;DHT22;9598;50.954;3.112;2023-03-24T21:54:22;11.10;99.90
18932;DHT22;9598;50.954;3.112;2023-03-24T21:59:27;11.20;99.90
18932;DHT22;9598;50.954;3.112;2023-03-24T22:04:31;11.20;99.90
18932;DHT22;9598;50.954;3.112;2023-03-24T22:09:38;11.20;99.90
18932;DHT22;9598;50.954;3.112;2023-03-24T22:14:41;11.10;99.90
18932;DHT22;9598;50.954;3.112;2023-03-24T22:19:43;11.10;99.90
18932;DHT22;9598;50.954;3.112;2023-03-24T22:24:46;11.00;99.90
18932;DHT22;9598;50.954;3.112;2023-03-24T22:29:49;11.00;99.90
18932;DHT22;9598;50.954;3.112;2023-03-24T22:34:51;11.00;99.90
18932;DHT22;9598;50.954;3.112;2023-03-24T22:39:53;11.00;99.90
18932;DHT22;9598;50.954;3.112;2023-03-24T22:44:57;11.00;99.90
18932;DHT22;9598;50.954;3.112;2023-03-24T22:49:59;11.00;99.90
18932;DHT22;9598;50.954;3.112;2023-03-24T22:55:01;11.00;99.90
18932;DHT22;9598;50.954;3.112;2023-03-24T23:00:06;11.00;99.90
18932;DHT22;9598;50.954;3.112;2023-03-24T23:05:08;10.90;99.90
18932;DHT22;9598;50.954;3.112;2023-03-24T23:10:11;11.00;99.90
18932;DHT22;9598;50.954;3.112;2023-03-24T23:15:14;11.00;99.90
18932;DHT22;9598;50.954;3.112;2023-03-24T23:20:18;11.00;99.90
18932;DHT22;9598;50.954;3.112;2023-03-24T23:25:29;11.00;99.90
18932;DHT22;9598;50.954;3.112;2023-03-24T23:30:33;11.00;99.90
18932;DHT22;9598;50.954;3.112;2023-03-24T23:35:35;10.90;99.90
18932;DHT22;9598;50.954;3.112;2023-03-24T23:40:38;10.80;99.90
18932;DHT22;9598;50.954;3.112;2023-03-24T23:45:43;10.80;99.90
18932;DHT22;9598;50.954;3.112;2023-03-24T23:50:54;10.80;99.90
18932;DHT22;9598;50.954;3.112;2023-03-24T23:55:57;10.80;99.90
